sensor_id;sensor_type;location;lat;lon;timestamp;temperature;humidity
38938;DHT22;24727;51.974;20.868;2023-06-26T00:01:26;15.80;1.00
38938;DHT22;24727;51.974;20.868;2023-06-26T00:03:56;15.80;1.00
38938;DHT22;24727;51.974;20.868;2023-06-26T00:06:22;15.70;1.00
38938;DHT22;24727;51.974;20.868;2023-06-26T00:08:54;15.60;1.00
38938;DHT22;24727;51.974;20.868;2023-06-26T00:11:22;15.60;1.00
38938;DHT22;24727;51.974;20.868;2023-06-26T00:13:48;15.50;1.00
38938;DHT22;24727;51.974;20.868;2023-06-26T00:16:15;15.50;1.00
38938;DHT22;24727;51.974;20.868;2023-06-26T00:18:41;15.40;1.00
38938;DHT22;24727;51.974;20.868;2023-06-26T00:21:09;15.50;1.00
38938;DHT22;24727;51.974;20.868;2023-06-26T00:23:35;15.50;1.00
38938;DHT22;24727;51.974;20.868;2023-06-26T00:26:04;15.50;1.00
38938;DHT22;24727;51.974;20.868;2023-06-26T00:28:30;15.50;1.00
38938;DHT22;24727;51.974;20.868;2023-06-26T00:30:56;15.50;1.00
38938;DHT22;24727;51.974;20.868;2023-06-26T00:33:22;15.60;1.00
38938;DHT22;24727;51.974;20.868;2023-06-26T00:35:48;15.60;1.00
38938;DHT22;24727;51.974;20.868;2023-06-26T00:38:15;15.60;1.00
38938;DHT22;24727;51.974;20.868;2023-06-26T00:40:41;15.60;1.00
38938;DHT22;24727;51.974;20.868;2023-06-26T00:43:07;15.60;1.00
38938;DHT22;24727;51.974;20.868;2023-06-26T00:45:33;15.50;1.00
38938;DHT22;24727;51.974;20.868;2023-06-26T00:47:59;15.60;1.00
38938;DHT22;24727;51.974;20.868;2023-06-26T00:50:26;15.60;1.00
38938;DHT22;24727;51.974;20.868;2023-06-26T00:52:53;15.50;1.00
38938;DHT22;24727;51.974;20.868;2023-06-26T00:55:20;15.50;1.00
38938;DHT22;24727;51.974;20.868;2023-06-26T00:57:46;15.60;1.00
38938;DHT22;24727;51.974;20.868;2023-06-26T01:00:14;15.50;1.00
38938;DHT22;24727;51.974;20.868;2023-06-26T01:02:41;15.40;1.00
38938;DHT22;24727;51.974;20.868;2023-06-26T01:05:07;15.40;1.00
38938;DHT22;24727;51.974;20.868;2023-06-26T01:07:34;15.30;1.00
38938;DHT22;24727;51.974;20.868;2023-06-26T01:10:03;15.20;1.00
38938;DHT22;24727;51.974;20.868;2023-06-26T01:12:31;15.10;1.00
38938;DHT22;24727;51.974;20.868;2023-06-26T01:14:59;14.80;1.00
38938;DHT22;24727;51.974;20.868;2023-06-26T01:17:27;14.80;1.00
38938;DHT22;24727;51.974;20.868;2023-06-26T01:19:59;14.80;1.00
38938;DHT22;24727;51.974;20.868;2023-06-26T01:28:15;14.70;1.00
38938;DHT22;24727;51.974;20.868;2023-06-26T01:30:46;14.70;1.00
38938;DHT22;24727;51.974;20.868;2023-06-26T01:33:19;14.80;1.00
38938;DHT22;24727;51.974;20.868;2023-06-26T01:35:45;14.80;1.00
38938;DHT22;24727;51.974;20.868;2023-06-26T01:38:19;14.80;1.00
38938;DHT22;24727;51.974;20.868;2023-06-26T01:40:46;14.80;1.00
38938;DHT22;24727;51.974;20.868;2023-06-26T01:43:31;14.90;1.00
38938;DHT22;24727;51.974;20.868;2023-06-26T01:46:16;15.00;1.00
38938;DHT22;24727;51.974;20.868;2023-06-26T01:49:10;15.00;1.00
38938;DHT22;24727;51.974;20.868;2023-06-26T01:52:20;14.90;1.00
38938;DHT22;24727;51.974;20.868;2023-06-26T01:55:23;14.80;1.00
38938;DHT22;24727;51.974;20.868;2023-06-26T01:57:44;14.70;1.00
38938;DHT22;24727;51.974;20.868;2023-06-26T02:00:14;14.60;1.00
38938;DHT22;24727;51.974;20.868;2023-06-26T02:02:44;14.60;1.00
38938;DHT22;24727;51.974;20.868;2023-06-26T02:05:10;14.60;1.00
38938;DHT22;24727;51.974;20.868;2023-06-26T02:07:36;14.60;1.00
38938;DHT22;24727;51.974;20.868;2023-06-26T02:10:02;14.70;1.00
38938;DHT22;24727;51.974;20.868;2023-06-26T02:12:29;14.70;1.00
38938;DHT22;24727;51.974;20.868;2023-06-26T02:14:57;14.70;1.00
38938;DHT22;24727;51.974;20.868;2023-06-26T02:17:23;14.60;1.00
38938;DHT22;24727;51.974;20.868;2023-06-26T02:19:48;14.60;1.00
38938;DHT22;24727;51.974;20.868;2023-06-26T02:22:17;14.50;1.00
38938;DHT22;24727;51.974;20.868;2023-06-26T02:24:43;14.50;1.00
38938;DHT22;24727;51.974;20.868;2023-06-26T02:27:09;14.50;1.00
38938;DHT22;24727;51.974;20.868;2023-06-26T02:29:36;14.50;1.00
38938;DHT22;24727;51.974;20.868;2023-06-26T02:32:02;14.40;1.00
38938;DHT22;24727;51.974;20.868;2023-06-26T02:34:28;14.20;1.00
38938;DHT22;24727;51.974;20.868;2023-06-26T02:36:58;14.20;1.00
38938;DHT22;24727;51.974;20.868;2023-06-26T02:39:24;14.10;1.00
38938;DHT22;24727;51.974;20.868;2023-06-26T02:41:51;14.10;1.00
38938;DHT22;24727;51.974;20.868;2023-06-26T02:44:17;14.10;1.00
38938;DHT22;24727;51.974;20.868;2023-06-26T02:46:43;14.10;1.00
38938;DHT22;24727;51.974;20.868;2023-06-26T02:49:09;14.20;1.00
38938;DHT22;24727;51.974;20.868;2023-06-26T02:51:37;14.20;1.00
38938;DHT22;24727;51.974;20.868;2023-06-26T02:54:03;14.30;1.00
38938;DHT22;24727;51.974;20.868;2023-06-26T02:56:29;14.30;1.00
38938;DHT22;24727;51.974;20.868;2023-06-26T02:58:56;14.40;1.00
38938;DHT22;24727;51.974;20.868;2023-06-26T03:01:22;14.40;1.00
38938;DHT22;24727;51.974;20.868;2023-06-26T03:03:48;14.40;1.00
38938;DHT22;24727;51.974;20.868;2023-06-26T03:06:15;14.30;1.00
38938;DHT22;24727;51.974;20.868;2023-06-26T03:08:41;14.10;1.00
38938;DHT22;24727;51.974;20.868;2023-06-26T03:11:08;14.10;1.00
38938;DHT22;24727;51.974;20.868;2023-06-26T03:13:38;14.00;1.00
38938;DHT22;24727;51.974;20.868;2023-06-26T03:16:05;14.10;1.00
38938;DHT22;24727;51.974;20.868;2023-06-26T03:18:31;14.10;1.00
38938;DHT22;24727;51.974;20.868;2023-06-26T03:20:57;14.10;1.00
38938;DHT22;24727;51.974;20.868;2023-06-26T03:23:23;14.10;1.00
38938;DHT22;24727;51.974;20.868;2023-06-26T03:25:50;14.20;1.00
38938;DHT22;24727;51.974;20.868;2023-06-26T03:28:17;14.20;1.00
38938;DHT22;24727;51.974;20.868;2023-06-26T03:30:45;14.20;1.00
38938;DHT22;24727;51.974;20.868;2023-06-26T03:33:11;14.30;1.00
38938;DHT22;24727;51.974;20.868;2023-06-26T03:35:37;14.40;1.00
38938;DHT22;24727;51.974;20.868;2023-06-26T03:38:06;14.50;1.00
38938;DHT22;24727;51.974;20.868;2023-06-26T03:40:32;14.60;1.00
38938;DHT22;24727;51.974;20.868;2023-06-26T03:42:57;14.70;1.00
38938;DHT22;24727;51.974;20.868;2023-06-26T03:45:23;14.70;1.00
38938;DHT22;24727;51.974;20.868;2023-06-26T03:47:49;14.80;1.00
38938;DHT22;24727;51.974;20.868;2023-06-26T03:50:18;14.90;1.00
38938;DHT22;24727;51.974;20.868;2023-06-26T03:52:46;15.10;1.00
38938;DHT22;24727;51.974;20.868;2023-06-26T03:55:12;15.10;1.00
38938;DHT22;24727;51.974;20.868;2023-06-26T03:57:38;15.30;1.00
38938;DHT22;24727;51.974;20.868;2023-06-26T04:00:04;15.30;1.00
38938;DHT22;24727;51.974;20.868;2023-06-26T04:02:38;15.50;1.00
38938;DHT22;24727;51.974;20.868;2023-06-26T04:05:04;15.60;1.00
38938;DHT22;24727;51.974;20.868;2023-06-26T04:07:31;15.70;1.00
38938;DHT22;24727;51.974;20.868;2023-06-26T04:09:57;15.80;1.00
38938;DHT22;24727;51.974;20.868;2023-06-26T04:12:24;15.90;1.00
38938;DHT22;24727;51.974;20.868;2023-06-26T04:14:50;16.10;1.00
38938;DHT22;24727;51.974;20.868;2023-06-26T04:17:16;16.20;1.00
38938;DHT22;24727;51.974;20.868;2023-06-26T04:19:43;16.40;1.00
38938;DHT22;24727;51.974;20.868;2023-06-26T04:22:10;16.50;1.00
38938;DHT22;24727;51.974;20.868;2023-06-26T04:24:37;16.70;1.00
38938;DHT22;24727;51.974;20.868;2023-06-26T04:27:03;16.90;1.00
38938;DHT22;24727;51.974;20.868;2023-06-26T04:29:29;16.90;1.00
38938;DHT22;24727;51.974;20.868;2023-06-26T04:31:55;17.20;1.00
38938;DHT22;24727;51.974;20.868;2023-06-26T04:34:33;17.20;1.00
38938;DHT22;24727;51.974;20.868;2023-06-26T04:37:01;17.40;1.00
38938;DHT22;24727;51.974;20.868;2023-06-26T04:39:29;17.60;1.00
38938;DHT22;24727;51.974;20.868;2023-06-26T04:41:56;17.80;1.00
38938;DHT22;24727;51.974;20.868;2023-06-26T04:44:23;18.00;1.00
38938;DHT22;24727;51.974;20.868;2023-06-26T04:46:49;18.10;1.00
38938;DHT22;24727;51.974;20.868;2023-06-26T04:49:17;18.30;1.00
38938;DHT22;24727;51.974;20.868;2023-06-26T04:51:44;18.60;1.00
38938;DHT22;24727;51.974;20.868;2023-06-26T04:54:11;18.90;1.00
38938;DHT22;24727;51.974;20.868;2023-06-26T04:56:37;19.20;1.00
38938;DHT22;24727;51.974;20.868;2023-06-26T04:59:05;19.50;1.00
38938;DHT22;24727;51.974;20.868;2023-06-26T05:01:33;19.80;1.00
38938;DHT22;24727;51.974;20.868;2023-06-26T05:04:07;19.90;1.00
38938;DHT22;24727;51.974;20.868;2023-06-26T05:06:33;19.90;1.00
38938;DHT22;24727;51.974;20.868;2023-06-26T05:08:59;19.90;1.00
38938;DHT22;24727;51.974;20.868;2023-06-26T05:11:32;20.00;1.00
38938;DHT22;24727;51.974;20.868;2023-06-26T05:13:58;20.40;1.00
38938;DHT22;24727;51.974;20.868;2023-06-26T05:16:24;20.70;1.00
38938;DHT22;24727;51.974;20.868;2023-06-26T05:18:51;21.00;1.00
38938;DHT22;24727;51.974;20.868;2023-06-26T05:21:18;21.30;1.00
38938;DHT22;24727;51.974;20.868;2023-06-26T05:23:45;21.60;1.00
38938;DHT22;24727;51.974;20.868;2023-06-26T05:26:12;21.70;1.00
38938;DHT22;24727;51.974;20.868;2023-06-26T05:28:39;22.00;1.00
38938;DHT22;24727;51.974;20.868;2023-06-26T05:31:05;22.10;1.00
38938;DHT22;24727;51.974;20.868;2023-06-26T05:33:35;22.10;1.00
38938;DHT22;24727;51.974;20.868;2023-06-26T05:36:04;22.20;1.00
38938;DHT22;24727;51.974;20.868;2023-06-26T05:38:31;22.40;1.00
38938;DHT22;24727;51.974;20.868;2023-06-26T05:40:57;22.50;1.00
38938;DHT22;24727;51.974;20.868;2023-06-26T05:43:23;22.60;1.00
38938;DHT22;24727;51.974;20.868;2023-06-26T05:45:50;22.80;1.00
38938;DHT22;24727;51.974;20.868;2023-06-26T05:48:16;23.20;1.00
38938;DHT22;24727;51.974;20.868;2023-06-26T05:50:48;23.60;1.00
38938;DHT22;24727;51.974;20.868;2023-06-26T05:53:16;24.10;1.00
38938;DHT22;24727;51.974;20.868;2023-06-26T05:55:43;24.40;1.00
38938;DHT22;24727;51.974;20.868;2023-06-26T05:58:10;24.70;1.00
38938;DHT22;24727;51.974;20.868;2023-06-26T06:00:39;25.00;1.00
38938;DHT22;24727;51.974;20.868;2023-06-26T06:03:09;25.30;1.00
38938;DHT22;24727;51.974;20.868;2023-06-26T06:05:36;25.40;1.00
38938;DHT22;24727;51.974;20.868;2023-06-26T06:08:03;25.50;1.00
38938;DHT22;24727;51.974;20.868;2023-06-26T06:10:29;25.90;1.00
38938;DHT22;24727;51.974;20.868;2023-06-26T06:12:55;25.80;1.00
38938;DHT22;24727;51.974;20.868;2023-06-26T06:15:21;26.30;1.00
38938;DHT22;24727;51.974;20.868;2023-06-26T06:17:47;26.70;1.00
38938;DHT22;24727;51.974;20.868;2023-06-26T06:20:13;27.00;1.00
38938;DHT22;24727;51.974;20.868;2023-06-26T06:22:39;27.30;1.00
38938;DHT22;24727;51.974;20.868;2023-06-26T06:25:05;27.60;1.00
38938;DHT22;24727;51.974;20.868;2023-06-26T06:27:31;27.80;1.00
38938;DHT22;24727;51.974;20.868;2023-06-26T06:29:57;28.00;1.00
38938;DHT22;24727;51.974;20.868;2023-06-26T06:32:23;27.70;1.00
38938;DHT22;24727;51.974;20.868;2023-06-26T06:34:50;27.40;1.00
38938;DHT22;24727;51.974;20.868;2023-06-26T06:37:17;27.40;1.00
38938;DHT22;24727;51.974;20.868;2023-06-26T06:39:43;27.30;1.00
38938;DHT22;24727;51.974;20.868;2023-06-26T06:42:09;27.40;1.00
38938;DHT22;24727;51.974;20.868;2023-06-26T06:44:35;28.00;1.00
38938;DHT22;24727;51.974;20.868;2023-06-26T06:47:02;28.20;1.00
38938;DHT22;24727;51.974;20.868;2023-06-26T06:49:30;27.70;1.00
38938;DHT22;24727;51.974;20.868;2023-06-26T06:51:56;28.20;1.00
38938;DHT22;24727;51.974;20.868;2023-06-26T06:54:26;27.90;1.00
38938;DHT22;24727;51.974;20.868;2023-06-26T06:56:52;27.80;1.00
38938;DHT22;24727;51.974;20.868;2023-06-26T06:59:18;28.20;1.00
38938;DHT22;24727;51.974;20.868;2023-06-26T07:01:45;28.20;1.00
38938;DHT22;24727;51.974;20.868;2023-06-26T07:04:12;28.00;1.00
38938;DHT22;24727;51.974;20.868;2023-06-26T07:06:38;28.20;1.00
38938;DHT22;24727;51.974;20.868;2023-06-26T07:09:04;28.60;1.00
38938;DHT22;24727;51.974;20.868;2023-06-26T07:11:31;29.20;1.00
38938;DHT22;24727;51.974;20.868;2023-06-26T07:13:58;29.00;1.00
38938;DHT22;24727;51.974;20.868;2023-06-26T07:16:24;29.10;1.00
38938;DHT22;24727;51.974;20.868;2023-06-26T07:18:50;29.60;1.00
38938;DHT22;24727;51.974;20.868;2023-06-26T07:21:17;29.80;1.00
38938;DHT22;24727;51.974;20.868;2023-06-26T07:23:43;29.60;1.00
38938;DHT22;24727;51.974;20.868;2023-06-26T07:26:09;30.00;1.00
38938;DHT22;24727;51.974;20.868;2023-06-26T07:28:35;29.30;1.00
38938;DHT22;24727;51.974;20.868;2023-06-26T07:31:01;28.20;1.00
38938;DHT22;24727;51.974;20.868;2023-06-26T07:33:28;28.10;1.00
38938;DHT22;24727;51.974;20.868;2023-06-26T07:35:55;27.40;1.00
38938;DHT22;24727;51.974;20.868;2023-06-26T07:38:20;27.70;1.00
38938;DHT22;24727;51.974;20.868;2023-06-26T07:40:47;28.20;1.00
38938;DHT22;24727;51.974;20.868;2023-06-26T07:43:15;29.30;1.00
38938;DHT22;24727;51.974;20.868;2023-06-26T07:45:41;29.00;1.00
38938;DHT22;24727;51.974;20.868;2023-06-26T07:48:08;29.60;1.00
38938;DHT22;24727;51.974;20.868;2023-06-26T07:50:34;29.90;1.00
38938;DHT22;24727;51.974;20.868;2023-06-26T07:53:02;29.00;1.00
38938;DHT22;24727;51.974;20.868;2023-06-26T07:55:27;29.10;1.00
38938;DHT22;24727;51.974;20.868;2023-06-26T07:57:53;30.00;1.00
38938;DHT22;24727;51.974;20.868;2023-06-26T08:00:20;29.10;1.00
38938;DHT22;24727;51.974;20.868;2023-06-26T08:02:46;28.70;1.00
38938;DHT22;24727;51.974;20.868;2023-06-26T08:05:13;28.40;1.00
38938;DHT22;24727;51.974;20.868;2023-06-26T08:07:39;28.10;1.00
38938;DHT22;24727;51.974;20.868;2023-06-26T08:10:05;27.30;1.00
38938;DHT22;24727;51.974;20.868;2023-06-26T08:12:31;27.50;1.00
38938;DHT22;24727;51.974;20.868;2023-06-26T08:14:57;27.50;1.00
38938;DHT22;24727;51.974;20.868;2023-06-26T08:17:23;28.30;1.00
38938;DHT22;24727;51.974;20.868;2023-06-26T08:19:49;28.50;1.00
38938;DHT22;24727;51.974;20.868;2023-06-26T08:22:21;27.60;1.00
38938;DHT22;24727;51.974;20.868;2023-06-26T08:24:47;26.90;1.00
38938;DHT22;24727;51.974;20.868;2023-06-26T08:27:15;27.30;1.00
38938;DHT22;24727;51.974;20.868;2023-06-26T08:29:41;27.90;1.00
38938;DHT22;24727;51.974;20.868;2023-06-26T08:32:07;28.60;1.00
38938;DHT22;24727;51.974;20.868;2023-06-26T08:34:33;29.30;1.00
38938;DHT22;24727;51.974;20.868;2023-06-26T08:37:01;29.70;1.00
38938;DHT22;24727;51.974;20.868;2023-06-26T08:39:27;29.00;1.00
38938;DHT22;24727;51.974;20.868;2023-06-26T08:41:54;28.00;1.00
38938;DHT22;24727;51.974;20.868;2023-06-26T08:44:20;27.30;1.00
38938;DHT22;24727;51.974;20.868;2023-06-26T08:46:51;28.00;1.00
38938;DHT22;24727;51.974;20.868;2023-06-26T08:49:46;28.90;1.00
38938;DHT22;24727;51.974;20.868;2023-06-26T08:52:52;29.90;1.00
38938;DHT22;24727;51.974;20.868;2023-06-26T08:55:20;29.10;1.00
38938;DHT22;24727;51.974;20.868;2023-06-26T08:57:50;28.70;1.00
38938;DHT22;24727;51.974;20.868;2023-06-26T09:00:18;28.40;1.00
38938;DHT22;24727;51.974;20.868;2023-06-26T09:02:45;27.10;1.00
38938;DHT22;24727;51.974;20.868;2023-06-26T09:05:11;26.70;1.00
38938;DHT22;24727;51.974;20.868;2023-06-26T09:07:39;27.00;1.00
38938;DHT22;24727;51.974;20.868;2023-06-26T09:10:11;27.50;1.00
38938;DHT22;24727;51.974;20.868;2023-06-26T09:12:37;28.00;1.00
38938;DHT22;24727;51.974;20.868;2023-06-26T09:15:05;29.00;1.00
38938;DHT22;24727;51.974;20.868;2023-06-26T09:17:33;29.70;1.00
38938;DHT22;24727;51.974;20.868;2023-06-26T09:20:04;29.40;1.00
38938;DHT22;24727;51.974;20.868;2023-06-26T09:22:35;29.30;1.00
38938;DHT22;24727;51.974;20.868;2023-06-26T09:25:03;30.20;1.00
38938;DHT22;24727;51.974;20.868;2023-06-26T09:27:30;30.00;1.00
38938;DHT22;24727;51.974;20.868;2023-06-26T09:29:56;29.00;1.00
38938;DHT22;24727;51.974;20.868;2023-06-26T09:32:27;27.90;1.00
38938;DHT22;24727;51.974;20.868;2023-06-26T09:34:56;28.30;1.00
38938;DHT22;24727;51.974;20.868;2023-06-26T09:37:22;28.70;1.00
38938;DHT22;24727;51.974;20.868;2023-06-26T09:39:48;29.40;1.00
38938;DHT22;24727;51.974;20.868;2023-06-26T09:42:15;28.90;1.00
38938;DHT22;24727;51.974;20.868;2023-06-26T09:44:45;29.30;1.00
38938;DHT22;24727;51.974;20.868;2023-06-26T09:47:12;29.20;1.00
38938;DHT22;24727;51.974;20.868;2023-06-26T09:49:42;29.80;1.00
38938;DHT22;24727;51.974;20.868;2023-06-26T09:52:16;30.20;1.00
38938;DHT22;24727;51.974;20.868;2023-06-26T09:54:43;29.00;1.00
38938;DHT22;24727;51.974;20.868;2023-06-26T09:57:16;27.90;1.00
38938;DHT22;24727;51.974;20.868;2023-06-26T09:59:43;27.30;1.00
38938;DHT22;24727;51.974;20.868;2023-06-26T10:02:13;27.80;1.00
38938;DHT22;24727;51.974;20.868;2023-06-26T10:04:39;28.30;1.00
38938;DHT22;24727;51.974;20.868;2023-06-26T10:07:07;28.10;1.00
38938;DHT22;24727;51.974;20.868;2023-06-26T10:09:37;27.50;1.00
38938;DHT22;24727;51.974;20.868;2023-06-26T10:12:25;27.20;1.00
38938;DHT22;24727;51.974;20.868;2023-06-26T10:14:56;27.20;1.00
38938;DHT22;24727;51.974;20.868;2023-06-26T10:17:27;27.50;1.00
38938;DHT22;24727;51.974;20.868;2023-06-26T10:19:54;29.00;1.00
38938;DHT22;24727;51.974;20.868;2023-06-26T10:22:27;30.90;1.00
38938;DHT22;24727;51.974;20.868;2023-06-26T10:24:57;32.20;1.00
38938;DHT22;24727;51.974;20.868;2023-06-26T10:27:28;32.30;1.00
38938;DHT22;24727;51.974;20.868;2023-06-26T10:30:00;31.60;1.00
38938;DHT22;24727;51.974;20.868;2023-06-26T10:32:29;32.20;1.00
38938;DHT22;24727;51.974;20.868;2023-06-26T10:34:55;32.30;1.00
38938;DHT22;24727;51.974;20.868;2023-06-26T10:37:44;32.50;1.00
38938;DHT22;24727;51.974;20.868;2023-06-26T10:40:11;31.90;1.00
38938;DHT22;24727;51.974;20.868;2023-06-26T10:42:38;31.90;1.00
38938;DHT22;24727;51.974;20.868;2023-06-26T10:47:46;32.80;1.00
38938;DHT22;24727;51.974;20.868;2023-06-26T10:50:32;32.10;1.00
38938;DHT22;24727;51.974;20.868;2023-06-26T10:53:22;32.90;1.00
38938;DHT22;24727;51.974;20.868;2023-06-26T10:56:05;34.50;1.00
38938;DHT22;24727;51.974;20.868;2023-06-26T11:01:23;32.90;1.00
38938;DHT22;24727;51.974;20.868;2023-06-26T11:04:10;33.60;1.00
38938;DHT22;24727;51.974;20.868;2023-06-26T11:06:40;34.30;1.00
38938;DHT22;24727;51.974;20.868;2023-06-26T11:09:15;34.50;1.00
38938;DHT22;24727;51.974;20.868;2023-06-26T11:14:22;32.60;1.00
38938;DHT22;24727;51.974;20.868;2023-06-26T11:16:51;33.10;1.00
38938;DHT22;24727;51.974;20.868;2023-06-26T11:19:18;33.50;1.00
38938;DHT22;24727;51.974;20.868;2023-06-26T11:21:44;33.80;1.00
38938;DHT22;24727;51.974;20.868;2023-06-26T11:24:12;32.70;1.00
38938;DHT22;24727;51.974;20.868;2023-06-26T11:26:43;32.20;1.00
38938;DHT22;24727;51.974;20.868;2023-06-26T11:29:11;32.20;1.00
38938;DHT22;24727;51.974;20.868;2023-06-26T11:31:38;33.00;1.00
38938;DHT22;24727;51.974;20.868;2023-06-26T11:34:14;31.00;1.00
38938;DHT22;24727;51.974;20.868;2023-06-26T11:36:42;31.50;1.00
38938;DHT22;24727;51.974;20.868;2023-06-26T11:39:12;32.60;1.00
38938;DHT22;24727;51.974;20.868;2023-06-26T11:41:39;31.30;1.00
38938;DHT22;24727;51.974;20.868;2023-06-26T11:44:07;31.50;1.00
38938;DHT22;24727;51.974;20.868;2023-06-26T11:46:35;29.20;1.00
38938;DHT22;24727;51.974;20.868;2023-06-26T11:49:06;30.20;1.00
38938;DHT22;24727;51.974;20.868;2023-06-26T11:51:33;30.80;1.00
38938;DHT22;24727;51.974;20.868;2023-06-26T11:54:03;32.10;1.00
38938;DHT22;24727;51.974;20.868;2023-06-26T11:56:30;30.80;1.00
38938;DHT22;24727;51.974;20.868;2023-06-26T11:59:07;29.40;1.00
38938;DHT22;24727;51.974;20.868;2023-06-26T12:01:35;30.00;1.00
38938;DHT22;24727;51.974;20.868;2023-06-26T12:04:06;31.40;1.00
38938;DHT22;24727;51.974;20.868;2023-06-26T12:06:39;32.50;1.00
38938;DHT22;24727;51.974;20.868;2023-06-26T12:09:09;34.10;1.00
38938;DHT22;24727;51.974;20.868;2023-06-26T12:11:38;35.30;1.00
38938;DHT22;24727;51.974;20.868;2023-06-26T12:14:07;35.50;1.00
38938;DHT22;24727;51.974;20.868;2023-06-26T12:16:37;34.20;1.00
38938;DHT22;24727;51.974;20.868;2023-06-26T12:19:08;33.40;1.00
38938;DHT22;24727;51.974;20.868;2023-06-26T12:24:01;30.20;1.00
38938;DHT22;24727;51.974;20.868;2023-06-26T12:26:28;30.00;1.00
38938;DHT22;24727;51.974;20.868;2023-06-26T12:29:16;30.30;1.00
38938;DHT22;24727;51.974;20.868;2023-06-26T12:31:50;31.50;1.00
38938;DHT22;24727;51.974;20.868;2023-06-26T12:34:25;33.10;1.00
38938;DHT22;24727;51.974;20.868;2023-06-26T12:36:53;33.90;1.00
38938;DHT22;24727;51.974;20.868;2023-06-26T12:39:20;33.40;1.00
38938;DHT22;24727;51.974;20.868;2023-06-26T12:41:47;34.00;1.00
38938;DHT22;24727;51.974;20.868;2023-06-26T12:44:18;35.20;1.00
38938;DHT22;24727;51.974;20.868;2023-06-26T12:46:49;35.60;1.00
38938;DHT22;24727;51.974;20.868;2023-06-26T12:49:16;36.10;1.00
38938;DHT22;24727;51.974;20.868;2023-06-26T12:51:43;36.80;1.00
38938;DHT22;24727;51.974;20.868;2023-06-26T12:54:09;37.30;1.00
38938;DHT22;24727;51.974;20.868;2023-06-26T12:56:35;37.30;1.00
38938;DHT22;24727;51.974;20.868;2023-06-26T12:59:01;34.00;1.00
38938;DHT22;24727;51.974;20.868;2023-06-26T13:01:27;31.50;1.00
38938;DHT22;24727;51.974;20.868;2023-06-26T13:03:54;32.20;1.00
38938;DHT22;24727;51.974;20.868;2023-06-26T13:06:20;33.50;1.00
38938;DHT22;24727;51.974;20.868;2023-06-26T13:08:46;34.40;1.00
38938;DHT22;24727;51.974;20.868;2023-06-26T13:11:13;32.90;1.00
38938;DHT22;24727;51.974;20.868;2023-06-26T13:13:40;31.10;1.00
38938;DHT22;24727;51.974;20.868;2023-06-26T13:16:07;31.50;1.00
38938;DHT22;24727;51.974;20.868;2023-06-26T13:18:33;32.00;1.00
38938;DHT22;24727;51.974;20.868;2023-06-26T13:21:00;32.90;1.00
38938;DHT22;24727;51.974;20.868;2023-06-26T13:23:27;33.90;1.00
38938;DHT22;24727;51.974;20.868;2023-06-26T13:25:54;32.90;1.00
38938;DHT22;24727;51.974;20.868;2023-06-26T13:28:19;32.60;1.00
38938;DHT22;24727;51.974;20.868;2023-06-26T13:30:46;31.70;1.00
38938;DHT22;24727;51.974;20.868;2023-06-26T13:33:20;31.00;1.00
38938;DHT22;24727;51.974;20.868;2023-06-26T13:35:46;30.40;1.00
38938;DHT22;24727;51.974;20.868;2023-06-26T13:38:11;29.70;1.00
38938;DHT22;24727;51.974;20.868;2023-06-26T13:40:37;30.20;1.00
38938;DHT22;24727;51.974;20.868;2023-06-26T13:43:03;29.60;1.00
38938;DHT22;24727;51.974;20.868;2023-06-26T13:45:29;28.80;1.00
38938;DHT22;24727;51.974;20.868;2023-06-26T13:47:55;28.50;1.00
38938;DHT22;24727;51.974;20.868;2023-06-26T13:50:21;28.10;1.00
38938;DHT22;24727;51.974;20.868;2023-06-26T13:52:48;28.10;1.00
38938;DHT22;24727;51.974;20.868;2023-06-26T13:55:14;28.70;1.00
38938;DHT22;24727;51.974;20.868;2023-06-26T13:57:40;29.50;1.00
38938;DHT22;24727;51.974;20.868;2023-06-26T14:00:08;29.70;1.00
38938;DHT22;24727;51.974;20.868;2023-06-26T14:02:34;29.70;1.00
38938;DHT22;24727;51.974;20.868;2023-06-26T14:05:00;30.80;1.00
38938;DHT22;24727;51.974;20.868;2023-06-26T14:07:26;30.60;1.00
38938;DHT22;24727;51.974;20.868;2023-06-26T14:09:52;31.00;1.00
38938;DHT22;24727;51.974;20.868;2023-06-26T14:12:24;30.80;1.00
38938;DHT22;24727;51.974;20.868;2023-06-26T14:14:52;30.60;1.00
38938;DHT22;24727;51.974;20.868;2023-06-26T14:17:24;31.00;1.00
38938;DHT22;24727;51.974;20.868;2023-06-26T14:19:54;31.70;1.00
38938;DHT22;24727;51.974;20.868;2023-06-26T14:22:21;30.90;1.00
38938;DHT22;24727;51.974;20.868;2023-06-26T14:24:47;31.70;1.00
38938;DHT22;24727;51.974;20.868;2023-06-26T14:27:13;31.30;1.00
38938;DHT22;24727;51.974;20.868;2023-06-26T14:29:41;31.30;1.00
38938;DHT22;24727;51.974;20.868;2023-06-26T14:32:08;30.40;1.00
38938;DHT22;24727;51.974;20.868;2023-06-26T14:34:34;30.10;1.00
38938;DHT22;24727;51.974;20.868;2023-06-26T14:37:01;30.30;1.00
38938;DHT22;24727;51.974;20.868;2023-06-26T14:39:31;29.60;1.00
38938;DHT22;24727;51.974;20.868;2023-06-26T14:41:57;30.10;1.00
38938;DHT22;24727;51.974;20.868;2023-06-26T14:44:24;30.20;1.00
38938;DHT22;24727;51.974;20.868;2023-06-26T14:46:50;30.20;1.00
38938;DHT22;24727;51.974;20.868;2023-06-26T14:49:16;29.90;1.00
38938;DHT22;24727;51.974;20.868;2023-06-26T14:51:42;30.50;1.00
38938;DHT22;24727;51.974;20.868;2023-06-26T14:54:09;30.70;1.00
38938;DHT22;24727;51.974;20.868;2023-06-26T14:56:36;31.50;1.00
38938;DHT22;24727;51.974;20.868;2023-06-26T14:59:02;32.30;1.00
38938;DHT22;24727;51.974;20.868;2023-06-26T15:01:28;31.90;1.00
38938;DHT22;24727;51.974;20.868;2023-06-26T15:03:55;31.10;1.00
38938;DHT22;24727;51.974;20.868;2023-06-26T15:06:21;30.10;1.00
38938;DHT22;24727;51.974;20.868;2023-06-26T15:08:48;29.40;1.00
38938;DHT22;24727;51.974;20.868;2023-06-26T15:11:14;28.80;1.00
38938;DHT22;24727;51.974;20.868;2023-06-26T15:13:40;28.80;1.00
38938;DHT22;24727;51.974;20.868;2023-06-26T15:16:06;29.70;1.00
38938;DHT22;24727;51.974;20.868;2023-06-26T15:18:33;30.20;1.00
38938;DHT22;24727;51.974;20.868;2023-06-26T15:21:00;29.80;1.00
38938;DHT22;24727;51.974;20.868;2023-06-26T15:23:29;29.50;1.00
38938;DHT22;24727;51.974;20.868;2023-06-26T15:25:55;28.90;1.00
38938;DHT22;24727;51.974;20.868;2023-06-26T15:28:21;28.60;1.00
38938;DHT22;24727;51.974;20.868;2023-06-26T15:30:47;28.50;1.00
38938;DHT22;24727;51.974;20.868;2023-06-26T15:33:13;28.50;1.00
38938;DHT22;24727;51.974;20.868;2023-06-26T15:35:40;28.00;1.00
38938;DHT22;24727;51.974;20.868;2023-06-26T15:38:06;28.30;1.00
38938;DHT22;24727;51.974;20.868;2023-06-26T15:40:31;28.20;1.00
38938;DHT22;24727;51.974;20.868;2023-06-26T15:42:57;28.20;1.00
38938;DHT22;24727;51.974;20.868;2023-06-26T15:45:23;27.80;1.00
38938;DHT22;24727;51.974;20.868;2023-06-26T15:47:53;27.60;1.00
38938;DHT22;24727;51.974;20.868;2023-06-26T15:50:19;27.40;1.00
38938;DHT22;24727;51.974;20.868;2023-06-26T15:52:45;27.20;1.00